Terminal Aerodrome Forecast
Issued by NWS

Current Version | Previous Version | Text Only | Print | Product List | Glossary Off
Versions: 1 2 3 4 5 6 7 8 9 10 11 12 13 14 15 16 17 18 19 20 21 22 23

000
FTUS41 KRLX 282153 AAA
TAFCKB
TAF AMD
KCKB 282153Z 2822/2918 VRB03KT 1/4SM +RA FG BKN025
      TEMPO 2822/2823 4SM -RA BR BKN008 OVC050
     FM282300 VRB04KT P6SM BKN025
     FM290500 00000KT 4SM BR FEW090
     FM291200 VRB04KT P6SM SCT035=

USA.gov is the U.S. government's official web portal to all federal, state and local government web resources and services.